createdAt,value
2022-11-29T00:01:05.377Z,14.23
2022-11-29T00:03:32.692Z,14.87
2022-11-29T00:06:04.926Z,14.40
2022-11-29T00:08:32.040Z,15.30
2022-11-29T00:11:03.492Z,13.53
2022-11-29T00:13:30.702Z,14.20
2022-11-29T00:16:02.090Z,13.73
2022-11-29T00:18:29.382Z,14.80
2022-11-29T00:20:56.730Z,14.70
2022-11-29T00:23:23.838Z,14.63
2022-11-29T00:25:50.999Z,14.17
2022-11-29T00:28:20.252Z,13.73
2022-11-29T00:30:47.404Z,16.37
2022-11-29T00:33:14.571Z,14.87
2022-11-29T00:35:41.683Z,14.93
2022-11-29T00:38:11.674Z,13.80
2022-11-29T00:40:38.770Z,14.93
2022-11-29T00:43:05.872Z,14.47
2022-11-29T00:45:32.962Z,15.90
2022-11-29T00:48:00.090Z,15.63
2022-11-29T00:50:27.262Z,14.47
2022-11-29T00:52:54.376Z,14.47
2022-11-29T00:55:21.507Z,15.27
2022-11-29T00:57:48.578Z,15.13
2022-11-29T01:00:16.146Z,15.80
2022-11-29T01:02:43.283Z,15.20
2022-11-29T01:05:10.517Z,14.90
2022-11-29T01:07:37.635Z,14.77
2022-11-29T01:10:04.955Z,14.13
2022-11-29T01:12:32.045Z,15.80
2022-11-29T01:14:59.399Z,14.23
2022-11-29T01:17:26.533Z,15.17
2022-11-29T01:19:53.613Z,14.07
2022-11-29T01:22:20.742Z,13.20
2022-11-29T01:24:47.858Z,14.77
2022-11-29T01:27:15.039Z,13.97
2022-11-29T01:29:42.226Z,13.80
2022-11-29T01:32:09.324Z,13.90
2022-11-29T01:34:36.437Z,13.23
2022-11-29T01:37:03.529Z,13.40
2022-11-29T01:39:30.658Z,12.50
2022-11-29T01:41:57.921Z,13.40
2022-11-29T01:44:25.042Z,13.43
2022-11-29T01:46:52.111Z,12.80
2022-11-29T01:49:27.335Z,13.17
2022-11-29T01:51:57.542Z,12.83
2022-11-29T01:54:24.739Z,13.30
2022-11-29T01:56:51.919Z,13.57
2022-11-29T01:59:25.537Z,12.50
2022-11-29T02:01:52.671Z,14.07
2022-11-29T02:04:19.803Z,12.77
2022-11-29T02:06:46.968Z,13.70
2022-11-29T02:09:20.325Z,12.73
2022-11-29T02:11:59.805Z,12.93
2022-11-29T02:14:32.659Z,12.70
2022-11-29T02:17:05.853Z,12.80
2022-11-29T02:19:51.882Z,13.80
2022-11-29T02:22:25.297Z,12.53
2022-11-29T02:25:04.139Z,12.97
2022-11-29T02:27:37.478Z,13.50
2022-11-29T02:30:05.170Z,12.10
2022-11-29T02:32:39.307Z,12.63
2022-11-29T02:35:11.346Z,14.70
2022-11-29T02:37:47.589Z,12.50
2022-11-29T02:40:22.912Z,12.13
2022-11-29T02:43:08.970Z,12.83
2022-11-29T02:45:42.049Z,12.50
2022-11-29T02:48:15.403Z,12.40
2022-11-29T02:50:54.218Z,12.63
2022-11-29T02:53:25.428Z,12.80
2022-11-29T02:55:52.566Z,12.87
2022-11-29T02:58:34.888Z,13.37
2022-11-29T03:01:25.344Z,12.10
2022-11-29T03:03:57.176Z,12.70
2022-11-29T03:06:27.541Z,13.50
2022-11-29T03:09:01.717Z,12.33
2022-11-29T03:11:31.812Z,12.07
2022-11-29T03:14:01.809Z,12.47
2022-11-29T03:16:58.111Z,11.60
2022-11-29T03:19:30.887Z,12.57
2022-11-29T03:22:15.814Z,12.00
2022-11-29T03:24:48.171Z,13.00
2022-11-29T03:27:17.706Z,13.60
2022-11-29T03:29:58.061Z,13.43
2022-11-29T03:32:31.394Z,14.30
2022-11-29T03:35:08.642Z,13.23
2022-11-29T03:37:57.443Z,13.60
2022-11-29T03:40:34.158Z,14.37
2022-11-29T03:43:01.272Z,13.50
2022-11-29T03:45:35.946Z,13.07
2022-11-29T03:48:05.195Z,14.00
2022-11-29T03:50:51.578Z,13.43
2022-11-29T03:53:37.725Z,13.00
2022-11-29T03:56:05.731Z,13.00
2022-11-29T03:58:38.144Z,14.30
2022-11-29T04:01:24.729Z,13.03
2022-11-29T04:03:54.867Z,11.70
2022-11-29T04:06:24.961Z,13.07
2022-11-29T04:09:10.233Z,14.17
2022-11-29T04:11:54.955Z,12.13
2022-11-29T04:14:28.448Z,11.87
2022-11-29T04:17:04.964Z,13.57
2022-11-29T04:19:38.305Z,13.17
2022-11-29T04:22:28.762Z,12.43
2022-11-29T04:25:14.275Z,13.07
2022-11-29T04:27:49.262Z,12.93
2022-11-29T04:30:18.052Z,13.10
2022-11-29T04:32:57.578Z,11.47
2022-11-29T04:35:37.143Z,13.50
2022-11-29T04:38:04.370Z,12.30
2022-11-29T04:40:34.679Z,12.10
2022-11-29T04:43:07.059Z,10.83
2022-11-29T04:45:37.387Z,11.87
2022-11-29T04:48:26.095Z,13.13
2022-11-29T04:51:11.975Z,13.03
2022-11-29T04:53:57.523Z,12.40
2022-11-29T04:56:43.316Z,12.13
2022-11-29T04:59:10.406Z,10.90
2022-11-29T05:01:58.116Z,12.33
2022-11-29T05:04:37.637Z,12.07
2022-11-29T05:07:12.978Z,12.23
2022-11-29T05:09:56.639Z,12.27
2022-11-29T05:12:42.539Z,11.83
2022-11-29T05:15:21.991Z,12.53
2022-11-29T05:18:09.719Z,11.77
2022-11-29T05:21:05.885Z,11.33
2022-11-29T05:23:51.555Z,12.07
2022-11-29T05:26:18.644Z,11.67
2022-11-29T05:28:54.752Z,11.07
2022-11-29T05:31:40.014Z,10.60
2022-11-29T05:34:29.021Z,11.07
2022-11-29T05:37:05.218Z,11.50
2022-11-29T05:39:35.159Z,12.50
2022-11-29T05:42:20.954Z,11.40
2022-11-29T05:44:58.947Z,11.00
2022-11-29T05:47:46.385Z,12.20
2022-11-29T05:50:16.550Z,10.47
2022-11-29T05:52:54.856Z,10.00
2022-11-29T05:55:32.373Z,11.23
2022-11-29T05:58:32.248Z,12.23
2022-11-29T06:01:00.929Z,13.20
2022-11-29T06:03:36.557Z,12.20
2022-11-29T06:06:27.106Z,11.23
2022-11-29T06:09:13.363Z,11.47
2022-11-29T06:11:44.965Z,11.20
2022-11-29T06:14:20.098Z,12.03
2022-11-29T06:16:57.456Z,11.73
2022-11-29T06:19:43.653Z,12.77
2022-11-29T06:22:26.879Z,12.07
2022-11-29T06:24:56.515Z,12.57
2022-11-29T06:27:32.999Z,13.47
2022-11-29T06:30:06.857Z,12.37
2022-11-29T06:32:50.517Z,12.47
2022-11-29T06:35:20.694Z,12.30
2022-11-29T06:37:51.309Z,12.70
2022-11-29T06:40:18.607Z,11.57
2022-11-29T06:42:45.777Z,12.33
2022-11-29T06:45:13.820Z,13.47
2022-11-29T06:47:59.760Z,12.43
2022-11-29T06:50:45.213Z,11.57
2022-11-29T06:53:15.524Z,12.27
2022-11-29T06:55:45.055Z,13.60
2022-11-29T06:58:15.313Z,12.33
2022-11-29T07:00:53.827Z,11.70
2022-11-29T07:03:33.442Z,11.90
2022-11-29T07:06:00.514Z,11.60
2022-11-29T07:08:27.777Z,11.90
2022-11-29T07:10:59.581Z,12.13
2022-11-29T07:13:26.902Z,12.67
2022-11-29T07:16:00.288Z,13.20
2022-11-29T07:18:33.940Z,12.50
2022-11-29T07:21:10.314Z,12.00
2022-11-29T07:23:52.700Z,12.13
2022-11-29T07:26:22.225Z,13.50
2022-11-29T07:29:04.284Z,14.10
2022-11-29T07:31:33.469Z,13.33
2022-11-29T07:34:12.760Z,13.50
2022-11-29T07:36:39.857Z,13.73
2022-11-29T07:39:16.183Z,13.67
2022-11-29T07:41:43.373Z,13.60
2022-11-29T07:44:19.542Z,15.30
2022-11-29T07:46:46.727Z,13.57
2022-11-29T07:49:13.935Z,16.73
2022-11-29T07:51:43.544Z,14.40
2022-11-29T07:54:11.380Z,14.30
2022-11-29T07:56:38.547Z,15.60
2022-11-29T07:59:06.824Z,14.93
2022-11-29T08:01:34.308Z,14.80
2022-11-29T08:04:01.521Z,14.40
2022-11-29T08:06:28.631Z,14.20
2022-11-29T08:08:57.958Z,19.17
2022-11-29T08:11:25.065Z,19.23
2022-11-29T08:13:56.406Z,15.57
2022-11-29T08:16:23.549Z,16.60
2022-11-29T08:18:50.727Z,15.60
2022-11-29T08:21:18.302Z,14.97
2022-11-29T08:23:48.785Z,17.27
2022-11-29T08:26:16.227Z,16.77
2022-11-29T08:28:43.373Z,16.40
2022-11-29T08:31:11.048Z,20.00
2022-11-29T08:33:38.620Z,17.90
2022-11-29T08:36:06.813Z,14.90
2022-11-29T08:38:33.925Z,17.33
2022-11-29T08:41:02.398Z,16.67
2022-11-29T08:43:30.174Z,35.00
2022-11-29T08:45:57.533Z,26.40
2022-11-29T08:48:24.748Z,16.63
2022-11-29T08:50:52.443Z,17.73
2022-11-29T08:53:38.272Z,16.73
2022-11-29T08:56:23.503Z,17.57
2022-11-29T08:58:53.068Z,19.00
2022-11-29T09:01:20.301Z,17.00
2022-11-29T09:03:59.536Z,18.70
2022-11-29T09:06:27.447Z,19.47
2022-11-29T09:08:57.742Z,18.27
2022-11-29T09:11:25.372Z,18.70
2022-11-29T09:13:53.473Z,37.40
2022-11-29T09:16:21.625Z,22.13
2022-11-29T09:18:56.009Z,17.83
2022-11-29T09:21:24.361Z,16.97
2022-11-29T09:23:58.017Z,16.67
2022-11-29T09:26:25.866Z,18.40
2022-11-29T09:28:53.028Z,17.37
2022-11-29T09:31:20.582Z,17.37
2022-11-29T09:33:49.137Z,15.60
2022-11-29T09:36:16.412Z,15.97
2022-11-29T09:38:43.505Z,16.83
2022-11-29T09:41:16.806Z,15.40
2022-11-29T09:44:00.641Z,16.07
2022-11-29T09:46:46.348Z,14.80
2022-11-29T09:49:13.448Z,15.40
2022-11-29T09:51:50.458Z,17.00
2022-11-29T09:54:29.950Z,16.43
2022-11-29T09:56:57.246Z,16.30
2022-11-29T09:59:37.814Z,17.40
2022-11-29T10:02:21.439Z,16.07
2022-11-29T10:04:50.900Z,15.70
2022-11-29T10:07:22.375Z,16.53
2022-11-29T10:09:55.551Z,16.50
2022-11-29T10:12:41.403Z,16.17
2022-11-29T10:15:17.477Z,18.33
2022-11-29T10:18:04.811Z,16.60
2022-11-29T10:20:35.365Z,17.07
2022-11-29T10:23:18.912Z,15.37
2022-11-29T10:25:46.775Z,17.13
2022-11-29T10:28:15.245Z,15.07
2022-11-29T10:30:42.573Z,19.07
2022-11-29T10:33:36.067Z,18.77
2022-11-29T10:36:04.683Z,14.20
2022-11-29T10:38:32.138Z,16.83
2022-11-29T10:41:06.539Z,14.77
2022-11-29T10:43:34.023Z,14.30
2022-11-29T10:46:02.490Z,14.50
2022-11-29T10:48:32.049Z,14.63
2022-11-29T10:50:59.200Z,16.60
2022-11-29T10:53:27.130Z,16.80
2022-11-29T10:55:55.899Z,15.60
2022-11-29T10:58:28.617Z,21.63
2022-11-29T11:01:00.153Z,17.27
2022-11-29T11:03:33.594Z,14.10
2022-11-29T11:06:03.675Z,13.60
2022-11-29T11:08:31.550Z,16.70
2022-11-29T11:11:01.753Z,13.83
2022-11-29T11:13:29.987Z,16.23
2022-11-29T11:16:11.159Z,13.03
2022-11-29T11:18:38.446Z,14.73
2022-11-29T11:21:05.587Z,14.17
2022-11-29T11:23:36.373Z,14.70
2022-11-29T11:26:09.640Z,13.63
2022-11-29T11:28:49.618Z,14.87
2022-11-29T11:31:16.806Z,14.70
2022-11-29T11:33:44.630Z,15.13
2022-11-29T11:36:38.067Z,15.07
2022-11-29T11:39:12.071Z,19.97
2022-11-29T11:41:58.463Z,14.30
2022-11-29T11:44:46.557Z,13.87
2022-11-29T11:47:19.376Z,12.80
2022-11-29T11:49:46.806Z,12.63
2022-11-29T11:52:21.538Z,14.53
2022-11-29T11:54:52.261Z,12.70
2022-11-29T11:57:19.578Z,12.37
2022-11-29T11:59:53.381Z,12.97
2022-11-29T12:02:41.991Z,12.10
2022-11-29T12:05:16.433Z,12.50
2022-11-29T12:08:08.419Z,11.23
2022-11-29T12:10:35.971Z,11.67
2022-11-29T12:13:03.098Z,12.07
2022-11-29T12:15:31.808Z,12.93
2022-11-29T12:18:02.051Z,12.20
2022-11-29T12:20:31.399Z,11.50
2022-11-29T12:23:16.730Z,11.70
2022-11-29T12:26:00.262Z,27.97
2022-11-29T12:28:33.878Z,12.07
2022-11-29T12:31:19.411Z,12.30
2022-11-29T12:33:58.849Z,12.97
2022-11-29T12:36:25.932Z,10.97
2022-11-29T12:39:05.285Z,10.70
2022-11-29T12:41:37.949Z,11.73
2022-11-29T12:44:05.348Z,10.50
2022-11-29T12:46:32.489Z,12.30
2022-11-29T12:49:08.258Z,11.20
2022-11-29T12:51:47.225Z,12.10
2022-11-29T12:54:14.308Z,9.50
2022-11-29T12:56:41.423Z,10.97
2022-11-29T12:59:17.791Z,11.10
2022-11-29T13:02:03.618Z,7.80
2022-11-29T13:04:58.101Z,7.60
2022-11-29T13:07:30.213Z,6.73
2022-11-29T13:10:04.910Z,6.80
2022-11-29T13:12:50.845Z,7.00
2022-11-29T13:15:19.015Z,6.50
2022-11-29T13:18:03.090Z,5.80
2022-11-29T13:20:34.718Z,6.40
2022-11-29T13:23:11.073Z,8.20
2022-11-29T13:25:38.754Z,7.70
2022-11-29T13:28:06.847Z,5.90
2022-11-29T13:30:36.781Z,8.60
2022-11-29T13:33:05.678Z,8.17
2022-11-29T13:35:43.072Z,6.43
2022-11-29T13:38:29.001Z,6.83
2022-11-29T13:41:19.363Z,5.83
2022-11-29T13:43:47.011Z,7.23
2022-11-29T13:46:20.468Z,7.43
2022-11-29T13:48:51.786Z,6.90
2022-11-29T13:51:27.894Z,8.33
2022-11-29T13:53:55.307Z,7.23
2022-11-29T13:56:26.532Z,7.60
2022-11-29T13:58:54.633Z,6.93
2022-11-29T14:01:22.549Z,7.70
2022-11-29T14:04:01.256Z,7.33
2022-11-29T14:06:38.094Z,8.17
2022-11-29T14:09:19.405Z,8.57
2022-11-29T14:12:06.377Z,7.60
2022-11-29T14:14:39.688Z,9.13
2022-11-29T14:17:06.993Z,8.20
2022-11-29T14:19:34.711Z,7.97
2022-11-29T14:22:01.914Z,9.10
2022-11-29T14:24:35.460Z,7.70
2022-11-29T14:27:09.927Z,8.20
2022-11-29T14:29:55.257Z,8.43
2022-11-29T14:32:25.251Z,7.10
2022-11-29T14:35:15.913Z,8.13
2022-11-29T14:38:01.498Z,7.10
2022-11-29T14:40:40.806Z,6.50
2022-11-29T14:43:22.990Z,7.30
2022-11-29T14:46:09.067Z,6.87
2022-11-29T14:48:36.625Z,7.63
2022-11-29T14:51:16.723Z,6.60
2022-11-29T14:53:44.261Z,6.30
2022-11-29T14:56:32.350Z,6.50
2022-11-29T14:59:18.371Z,6.50
2022-11-29T15:01:45.610Z,6.00
2022-11-29T15:04:12.948Z,6.10
2022-11-29T15:06:46.158Z,5.30
2022-11-29T15:09:17.958Z,4.80
2022-11-29T15:11:52.428Z,3.97
2022-11-29T15:14:20.718Z,4.33
2022-11-29T15:17:20.562Z,4.00
2022-11-29T15:19:56.709Z,5.23
2022-11-29T15:22:52.338Z,4.60
2022-11-29T15:25:20.786Z,5.00
2022-11-29T15:27:54.731Z,5.00
2022-11-29T15:30:30.996Z,5.30
2022-11-29T15:32:58.507Z,4.80
2022-11-29T15:35:25.640Z,5.30
2022-11-29T15:37:52.816Z,4.97
2022-11-29T15:40:24.058Z,4.97
2022-11-29T15:42:55.270Z,5.13
2022-11-29T15:45:26.744Z,4.80
2022-11-29T15:47:54.022Z,4.83
2022-11-29T15:50:27.886Z,5.40
2022-11-29T15:52:56.110Z,6.30
2022-11-29T15:55:23.286Z,6.03
2022-11-29T15:57:50.863Z,7.10
2022-11-29T16:00:20.299Z,6.00
2022-11-29T16:02:49.050Z,6.70
2022-11-29T16:05:16.285Z,6.00
2022-11-29T16:07:43.985Z,6.67
2022-11-29T16:10:12.766Z,7.30
2022-11-29T16:12:52.147Z,8.23
2022-11-29T16:15:29.395Z,7.43
2022-11-29T16:17:56.537Z,7.80
2022-11-29T16:20:24.323Z,7.67
2022-11-29T16:23:13.500Z,8.10
2022-11-29T16:25:59.098Z,8.67
2022-11-29T16:28:27.223Z,8.20
2022-11-29T16:30:54.290Z,7.90
2022-11-29T16:33:22.402Z,9.00
2022-11-29T16:35:49.525Z,9.10
2022-11-29T16:38:23.057Z,8.60
2022-11-29T16:41:06.559Z,8.30
2022-11-29T16:43:47.424Z,8.90
2022-11-29T16:46:20.614Z,9.60
2022-11-29T16:48:48.391Z,9.63
2022-11-29T16:51:18.134Z,8.17
2022-11-29T16:53:48.361Z,9.30
2022-11-29T16:56:15.903Z,9.97
2022-11-29T16:59:26.929Z,10.23
2022-11-29T17:01:30.998Z,10.47
2022-11-29T17:03:59.564Z,10.37
2022-11-29T17:06:26.874Z,10.60
2022-11-29T17:08:54.891Z,10.57
2022-11-29T17:11:22.039Z,10.20
2022-11-29T17:13:50.112Z,10.23
2022-11-29T17:16:18.465Z,9.40
2022-11-29T17:18:45.669Z,11.90
2022-11-29T17:21:22.551Z,11.47
2022-11-29T17:23:50.785Z,11.00
2022-11-29T17:26:17.999Z,10.40
2022-11-29T17:28:45.668Z,10.63
2022-11-29T17:31:13.309Z,10.30
2022-11-29T17:33:40.410Z,12.43
2022-11-29T17:36:07.775Z,9.87
2022-11-29T17:38:35.055Z,11.67
2022-11-29T17:41:08.874Z,10.70
2022-11-29T17:43:36.625Z,10.93
2022-11-29T17:46:16.728Z,12.10
2022-11-29T17:48:46.199Z,12.07
2022-11-29T17:51:43.543Z,11.27
2022-11-29T17:54:04.453Z,11.00
2022-11-29T17:56:31.631Z,11.80
2022-11-29T17:58:59.375Z,11.30
2022-11-29T18:01:27.137Z,13.57
2022-11-29T18:03:55.267Z,12.07
2022-11-29T18:06:23.187Z,13.53
2022-11-29T18:08:51.040Z,13.80
2022-11-29T18:11:19.157Z,15.13
2022-11-29T18:13:46.464Z,13.17
2022-11-29T18:16:20.812Z,13.63
2022-11-29T18:18:47.979Z,12.30
2022-11-29T18:21:15.203Z,13.07
2022-11-29T18:23:42.885Z,13.33
2022-11-29T18:26:17.488Z,12.40
2022-11-29T18:28:44.830Z,11.17
2022-11-29T18:31:12.884Z,12.80
2022-11-29T18:33:40.566Z,10.70
2022-11-29T18:36:10.020Z,11.50
2022-11-29T18:38:37.625Z,12.30
2022-11-29T18:41:11.950Z,12.40
2022-11-29T18:43:40.216Z,13.30
2022-11-29T18:46:10.518Z,13.57
2022-11-29T18:48:37.778Z,12.63
2022-11-29T18:51:05.096Z,13.10
2022-11-29T18:53:32.275Z,13.30
2022-11-29T18:56:02.207Z,14.57
2022-11-29T18:58:29.281Z,13.20
2022-11-29T19:01:02.864Z,13.93
2022-11-29T19:03:30.317Z,13.00
2022-11-29T19:05:57.471Z,15.93
2022-11-29T19:08:25.668Z,16.80
2022-11-29T19:10:52.767Z,15.33
2022-11-29T19:13:19.849Z,16.30
2022-11-29T19:15:56.111Z,15.90
2022-11-29T19:18:23.240Z,17.53
2022-11-29T19:20:51.117Z,16.20
2022-11-29T19:23:18.247Z,17.30
2022-11-29T19:25:45.387Z,17.23
2022-11-29T19:28:14.294Z,18.57
2022-11-29T19:30:41.764Z,16.53
2022-11-29T19:33:08.916Z,17.47
2022-11-29T19:35:36.142Z,18.83
2022-11-29T19:38:03.240Z,18.33
2022-11-29T19:40:30.336Z,17.20
2022-11-29T19:42:57.434Z,17.27
2022-11-29T19:45:24.499Z,18.20
2022-11-29T19:47:51.631Z,18.30
2022-11-29T19:50:18.780Z,18.37
2022-11-29T19:52:45.919Z,18.30
2022-11-29T19:55:13.030Z,18.20
2022-11-29T19:57:40.175Z,20.23
2022-11-29T20:00:07.539Z,19.60
2022-11-29T20:02:34.777Z,18.93
2022-11-29T20:05:01.883Z,17.10
2022-11-29T20:07:29.137Z,16.83
2022-11-29T20:09:56.283Z,20.50
2022-11-29T20:12:23.389Z,20.47
2022-11-29T20:14:50.453Z,20.80
2022-11-29T20:17:17.556Z,19.50
2022-11-29T20:19:45.006Z,22.40
2022-11-29T20:22:12.468Z,20.77
2022-11-29T20:24:45.093Z,22.00
2022-11-29T20:27:12.749Z,21.47
2022-11-29T20:29:39.845Z,21.97
2022-11-29T20:32:06.950Z,19.37
2022-11-29T20:34:34.138Z,21.47
2022-11-29T20:37:11.785Z,21.43
2022-11-29T20:39:42.246Z,20.90
2022-11-29T20:42:18.725Z,20.33
2022-11-29T20:44:53.240Z,20.83
2022-11-29T20:47:24.139Z,20.70
2022-11-29T20:49:51.403Z,19.70
2022-11-29T20:52:37.399Z,19.87
2022-11-29T20:55:05.089Z,21.20
2022-11-29T20:57:32.165Z,20.87
2022-11-29T20:59:59.382Z,20.40
2022-11-29T21:02:26.523Z,19.70
2022-11-29T21:04:56.127Z,19.53
2022-11-29T21:07:26.043Z,20.47
2022-11-29T21:09:56.682Z,20.70
2022-11-29T21:12:28.199Z,19.87
2022-11-29T21:14:55.566Z,19.70
2022-11-29T21:17:22.801Z,19.83
2022-11-29T21:19:52.485Z,21.70
2022-11-29T21:22:31.327Z,19.30
2022-11-29T21:25:10.429Z,20.00
2022-11-29T21:27:37.798Z,19.73
2022-11-29T21:30:05.693Z,18.67
2022-11-29T21:32:33.011Z,20.90
2022-11-29T21:35:02.029Z,19.13
2022-11-29T21:37:29.834Z,18.60
2022-11-29T21:39:57.572Z,20.43
2022-11-29T21:42:24.684Z,19.40
2022-11-29T21:44:52.259Z,18.53
2022-11-29T21:47:19.615Z,19.67
2022-11-29T21:49:47.154Z,20.73
2022-11-29T21:52:19.058Z,18.20
2022-11-29T21:54:49.434Z,18.53
2022-11-29T21:57:16.679Z,19.67
2022-11-29T21:59:44.137Z,17.90
2022-11-29T22:02:11.304Z,20.50
2022-11-29T22:04:38.596Z,21.13
2022-11-29T22:07:05.680Z,20.87
2022-11-29T22:09:32.948Z,19.97
2022-11-29T22:12:00.087Z,21.90
2022-11-29T22:14:27.211Z,22.20
2022-11-29T22:16:57.775Z,21.33
2022-11-29T22:19:31.598Z,20.50
2022-11-29T22:21:59.547Z,22.10
2022-11-29T22:24:27.475Z,21.17
2022-11-29T22:26:54.778Z,20.83
2022-11-29T22:29:21.966Z,23.37
2022-11-29T22:31:49.798Z,22.30
2022-11-29T22:34:17.053Z,21.57
2022-11-29T22:36:44.284Z,22.87
2022-11-29T22:39:11.560Z,22.27
2022-11-29T22:41:38.842Z,21.03
2022-11-29T22:44:06.023Z,21.90
2022-11-29T22:46:35.305Z,21.80
2022-11-29T22:49:03.156Z,23.07
2022-11-29T22:51:31.021Z,19.90
2022-11-29T22:53:58.687Z,23.77
2022-11-29T22:56:26.952Z,20.97
2022-11-29T22:58:54.040Z,21.83
2022-11-29T23:01:21.898Z,22.37
2022-11-29T23:03:51.765Z,22.30
2022-11-29T23:06:19.629Z,22.40
2022-11-29T23:08:47.012Z,20.67
2022-11-29T23:11:15.209Z,21.47
2022-11-29T23:13:42.688Z,19.70
2022-11-29T23:16:10.949Z,21.10
2022-11-29T23:18:39.800Z,21.60
2022-11-29T23:21:07.663Z,21.37
2022-11-29T23:23:34.782Z,20.70
2022-11-29T23:26:01.913Z,21.77
2022-11-29T23:28:29.113Z,19.60
2022-11-29T23:30:56.317Z,20.23
2022-11-29T23:33:23.631Z,23.00
2022-11-29T23:35:51.228Z,20.50
2022-11-29T23:38:18.445Z,20.73
2022-11-29T23:40:45.574Z,20.27
2022-11-29T23:43:12.695Z,19.93
2022-11-29T23:45:39.949Z,19.90
2022-11-29T23:48:07.064Z,19.13
2022-11-29T23:50:34.416Z,21.03
2022-11-29T23:53:01.595Z,18.93
2022-11-29T23:55:28.722Z,19.97
2022-11-29T23:57:55.804Z,20.00
